Impacts TAF Board
For situational awareness. Not to be used for flight planning purposes.
IDs:

KCLT - Charlotte/Douglas In, NC, US

Issued at 2201 UTC 18 Dec 2018
Updated at 2254 UTC 18 Dec 2018
Potential Impact None Slight Moderate High
Time<<19/11Z 19/12Z 19/13Z 19/14Z 19/15Z 19/16Z 19/17Z 19/18Z 19/19Z 19/20Z 19/21Z 19/22Z 19/23Z>>
Type PRVL PRVL PRVL PRVL PRVL PRVL PRVL PRVL PRVL PRVL PRVL PRVL PRVL
VIS >6 >6 >6 >6 >6 >6 >6 >6 >6 >6 >6 >6 >6
CIG 250 250 250 250 250 250 150 150 150 150 45 45 25
Cover BKN BKN BKN BKN BKN BKN BKN BKN BKN BKN BKN BKN BKN
FltCat VFR VFR VFR VFR VFR VFR VFR VFR VFR VFR VFR VFR MVFR
WX -- -- -- -- -- -- -- -- -- -- -- -- --
WDir 80 80 80 80 80 80 80 80 80 80 100 100 110
WSpd 2 2 2 2 2 2 5 5 5 5 5 5 3
WGst -- -- -- -- -- -- -- -- -- -- -- -- --
Raw TAF
KCLT 182201Z 1822/1924 07004KT P6SM SCT250
  FM190800 08002KT P6SM BKN250
  FM191700 08005KT P6SM SCT050 BKN150
  FM192100 10005KT P6SM SCT025 BKN045
  FM192300 11003KT P6SM BKN025


METAR Board
Radar Display
Forecast Discussion
For situational awareness. Not to be used for flight planning purposes.